sensor_id;sensor_type;location;lat;lon;timestamp;temperature;humidity
18163;DHT22;9206;50.994;4.538;2022-09-27T00:01:45;9.90;99.90
18163;DHT22;9206;50.994;4.538;2022-09-27T00:04:35;9.90;99.90
18163;DHT22;9206;50.994;4.538;2022-09-27T00:07:25;9.90;99.90
18163;DHT22;9206;50.994;4.538;2022-09-27T00:10:17;9.80;99.90
18163;DHT22;9206;50.994;4.538;2022-09-27T00:13:06;9.80;99.90
18163;DHT22;9206;50.994;4.538;2022-09-27T00:15:57;9.90;99.90
18163;DHT22;9206;50.994;4.538;2022-09-27T00:18:44;9.80;99.90
18163;DHT22;9206;50.994;4.538;2022-09-27T00:21:37;9.90;99.90
18163;DHT22;9206;50.994;4.538;2022-09-27T00:24:28;9.90;99.90
18163;DHT22;9206;50.994;4.538;2022-09-27T00:27:18;9.90;99.90
18163;DHT22;9206;50.994;4.538;2022-09-27T00:30:12;9.90;99.90
18163;DHT22;9206;50.994;4.538;2022-09-27T00:33:05;9.90;99.90
18163;DHT22;9206;50.994;4.538;2022-09-27T00:35:53;9.90;99.90
18163;DHT22;9206;50.994;4.538;2022-09-27T00:38:46;9.90;99.90
18163;DHT22;9206;50.994;4.538;2022-09-27T00:41:35;9.90;99.90
18163;DHT22;9206;50.994;4.538;2022-09-27T00:47:54;9.90;99.90
18163;DHT22;9206;50.994;4.538;2022-09-27T00:50:45;9.90;99.90
18163;DHT22;9206;50.994;4.538;2022-09-27T00:53:42;9.90;99.90
18163;DHT22;9206;50.994;4.538;2022-09-27T00:56:34;9.90;99.90
18163;DHT22;9206;50.994;4.538;2022-09-27T00:59:27;9.80;99.90
18163;DHT22;9206;50.994;4.538;2022-09-27T01:02:17;9.80;99.90
18163;DHT22;9206;50.994;4.538;2022-09-27T01:05:08;9.80;99.90
18163;DHT22;9206;50.994;4.538;2022-09-27T01:07:59;9.80;99.90
18163;DHT22;9206;50.994;4.538;2022-09-27T01:11:07;9.80;99.90
18163;DHT22;9206;50.994;4.538;2022-09-27T01:14:28;9.70;99.90
18163;DHT22;9206;50.994;4.538;2022-09-27T01:17:31;9.70;99.90
18163;DHT22;9206;50.994;4.538;2022-09-27T01:20:49;9.70;99.90
18163;DHT22;9206;50.994;4.538;2022-09-27T01:24:00;9.60;99.90
18163;DHT22;9206;50.994;4.538;2022-09-27T01:27:16;9.60;99.90
18163;DHT22;9206;50.994;4.538;2022-09-27T01:30:22;9.60;99.90
18163;DHT22;9206;50.994;4.538;2022-09-27T01:33:21;9.60;99.90
18163;DHT22;9206;50.994;4.538;2022-09-27T01:36:17;9.60;99.90
18163;DHT22;9206;50.994;4.538;2022-09-27T01:39:20;9.60;99.90
18163;DHT22;9206;50.994;4.538;2022-09-27T01:42:19;9.60;99.90
18163;DHT22;9206;50.994;4.538;2022-09-27T01:45:12;9.60;99.90
18163;DHT22;9206;50.994;4.538;2022-09-27T01:48:06;9.60;99.90
18163;DHT22;9206;50.994;4.538;2022-09-27T01:51:04;9.50;99.90
18163;DHT22;9206;50.994;4.538;2022-09-27T01:53:59;9.50;99.90
18163;DHT22;9206;50.994;4.538;2022-09-27T01:56:49;9.50;99.90
18163;DHT22;9206;50.994;4.538;2022-09-27T01:59:43;9.50;99.90
18163;DHT22;9206;50.994;4.538;2022-09-27T02:02:33;9.50;99.90
18163;DHT22;9206;50.994;4.538;2022-09-27T02:05:27;9.50;99.90
18163;DHT22;9206;50.994;4.538;2022-09-27T02:08:22;9.50;99.90
18163;DHT22;9206;50.994;4.538;2022-09-27T02:11:13;9.50;99.90
18163;DHT22;9206;50.994;4.538;2022-09-27T02:14:05;9.40;99.90
18163;DHT22;9206;50.994;4.538;2022-09-27T02:16:59;9.40;99.90
18163;DHT22;9206;50.994;4.538;2022-09-27T02:19:54;9.40;99.90
18163;DHT22;9206;50.994;4.538;2022-09-27T02:22:49;9.40;99.90
18163;DHT22;9206;50.994;4.538;2022-09-27T02:25:40;9.40;99.90
18163;DHT22;9206;50.994;4.538;2022-09-27T02:28:32;9.40;99.90
18163;DHT22;9206;50.994;4.538;2022-09-27T02:31:21;9.40;99.90
18163;DHT22;9206;50.994;4.538;2022-09-27T02:34:13;9.40;99.90
18163;DHT22;9206;50.994;4.538;2022-09-27T02:37:02;9.30;99.90
18163;DHT22;9206;50.994;4.538;2022-09-27T02:39:51;9.30;99.90
18163;DHT22;9206;50.994;4.538;2022-09-27T02:42:39;9.30;99.90
18163;DHT22;9206;50.994;4.538;2022-09-27T02:45:33;9.20;99.90
18163;DHT22;9206;50.994;4.538;2022-09-27T02:48:29;9.20;99.90
18163;DHT22;9206;50.994;4.538;2022-09-27T02:51:32;9.20;99.90
18163;DHT22;9206;50.994;4.538;2022-09-27T02:54:33;9.20;99.90
18163;DHT22;9206;50.994;4.538;2022-09-27T02:57:32;9.10;99.90
18163;DHT22;9206;50.994;4.538;2022-09-27T03:00:24;9.10;99.90
18163;DHT22;9206;50.994;4.538;2022-09-27T03:03:20;9.10;99.90
18163;DHT22;9206;50.994;4.538;2022-09-27T03:06:12;9.10;99.90
18163;DHT22;9206;50.994;4.538;2022-09-27T03:09:00;9.10;99.90
18163;DHT22;9206;50.994;4.538;2022-09-27T03:11:58;9.10;99.90
18163;DHT22;9206;50.994;4.538;2022-09-27T03:14:50;9.10;99.90
18163;DHT22;9206;50.994;4.538;2022-09-27T03:17:38;9.10;99.90
18163;DHT22;9206;50.994;4.538;2022-09-27T03:20:27;9.00;99.90
18163;DHT22;9206;50.994;4.538;2022-09-27T03:23:17;9.00;99.90
18163;DHT22;9206;50.994;4.538;2022-09-27T03:26:05;9.00;99.90
18163;DHT22;9206;50.994;4.538;2022-09-27T03:28:52;9.00;99.90
18163;DHT22;9206;50.994;4.538;2022-09-27T03:31:44;9.00;99.90
18163;DHT22;9206;50.994;4.538;2022-09-27T03:34:34;9.00;99.90
18163;DHT22;9206;50.994;4.538;2022-09-27T03:37:22;9.00;99.90
18163;DHT22;9206;50.994;4.538;2022-09-27T03:40:10;9.00;99.90
18163;DHT22;9206;50.994;4.538;2022-09-27T03:43:03;9.00;99.90
18163;DHT22;9206;50.994;4.538;2022-09-27T03:45:53;9.00;99.90
18163;DHT22;9206;50.994;4.538;2022-09-27T03:48:42;9.10;99.90
18163;DHT22;9206;50.994;4.538;2022-09-27T03:51:32;9.10;99.90
18163;DHT22;9206;50.994;4.538;2022-09-27T03:54:21;9.10;99.90
18163;DHT22;9206;50.994;4.538;2022-09-27T03:57:09;9.10;99.90
18163;DHT22;9206;50.994;4.538;2022-09-27T03:59:57;9.10;99.90
18163;DHT22;9206;50.994;4.538;2022-09-27T04:02:48;9.10;99.90
18163;DHT22;9206;50.994;4.538;2022-09-27T04:05:42;9.10;99.90
18163;DHT22;9206;50.994;4.538;2022-09-27T04:08:32;9.10;99.90
18163;DHT22;9206;50.994;4.538;2022-09-27T04:11:20;9.00;99.90
18163;DHT22;9206;50.994;4.538;2022-09-27T04:14:11;9.00;99.90
18163;DHT22;9206;50.994;4.538;2022-09-27T04:17:00;8.90;99.90
18163;DHT22;9206;50.994;4.538;2022-09-27T04:19:49;8.80;99.90
18163;DHT22;9206;50.994;4.538;2022-09-27T04:22:41;8.80;99.90
18163;DHT22;9206;50.994;4.538;2022-09-27T04:25:30;8.80;99.90
18163;DHT22;9206;50.994;4.538;2022-09-27T04:28:19;8.80;99.90
18163;DHT22;9206;50.994;4.538;2022-09-27T04:31:07;8.80;99.90
18163;DHT22;9206;50.994;4.538;2022-09-27T04:34:00;8.80;99.90
18163;DHT22;9206;50.994;4.538;2022-09-27T04:36:50;8.80;99.90
18163;DHT22;9206;50.994;4.538;2022-09-27T04:39:41;8.70;99.90
18163;DHT22;9206;50.994;4.538;2022-09-27T04:42:30;8.70;99.90
18163;DHT22;9206;50.994;4.538;2022-09-27T04:45:19;8.70;99.90
18163;DHT22;9206;50.994;4.538;2022-09-27T04:48:07;8.70;99.90
18163;DHT22;9206;50.994;4.538;2022-09-27T04:50:58;8.70;99.90
18163;DHT22;9206;50.994;4.538;2022-09-27T04:53:47;8.70;99.90
18163;DHT22;9206;50.994;4.538;2022-09-27T04:56:36;8.80;99.90
18163;DHT22;9206;50.994;4.538;2022-09-27T04:59:27;8.80;99.90
18163;DHT22;9206;50.994;4.538;2022-09-27T05:02:17;8.80;99.90
18163;DHT22;9206;50.994;4.538;2022-09-27T05:05:08;8.80;99.90
18163;DHT22;9206;50.994;4.538;2022-09-27T05:07:58;8.70;99.90
18163;DHT22;9206;50.994;4.538;2022-09-27T05:10:48;8.70;99.90
18163;DHT22;9206;50.994;4.538;2022-09-27T05:13:40;8.70;99.90
18163;DHT22;9206;50.994;4.538;2022-09-27T05:16:29;8.70;99.90
18163;DHT22;9206;50.994;4.538;2022-09-27T05:19:22;8.70;99.90
18163;DHT22;9206;50.994;4.538;2022-09-27T05:22:13;8.80;99.90
18163;DHT22;9206;50.994;4.538;2022-09-27T05:25:01;8.80;99.90
18163;DHT22;9206;50.994;4.538;2022-09-27T05:27:49;8.80;99.90
18163;DHT22;9206;50.994;4.538;2022-09-27T05:30:44;8.80;99.90
18163;DHT22;9206;50.994;4.538;2022-09-27T05:33:31;8.90;99.90
18163;DHT22;9206;50.994;4.538;2022-09-27T05:36:20;8.90;99.90
18163;DHT22;9206;50.994;4.538;2022-09-27T05:39:11;8.90;99.90
18163;DHT22;9206;50.994;4.538;2022-09-27T05:42:03;8.90;99.90
18163;DHT22;9206;50.994;4.538;2022-09-27T05:44:55;9.00;99.90
18163;DHT22;9206;50.994;4.538;2022-09-27T05:47:51;9.00;99.90
18163;DHT22;9206;50.994;4.538;2022-09-27T05:50:40;9.00;99.90
18163;DHT22;9206;50.994;4.538;2022-09-27T05:53:31;9.00;99.90
18163;DHT22;9206;50.994;4.538;2022-09-27T05:56:21;9.00;99.90
18163;DHT22;9206;50.994;4.538;2022-09-27T05:59:17;9.00;99.90
18163;DHT22;9206;50.994;4.538;2022-09-27T06:02:05;9.00;99.90
18163;DHT22;9206;50.994;4.538;2022-09-27T06:04:55;9.00;99.90
18163;DHT22;9206;50.994;4.538;2022-09-27T06:07:42;9.00;99.90
18163;DHT22;9206;50.994;4.538;2022-09-27T06:10:30;9.00;99.90
18163;DHT22;9206;50.994;4.538;2022-09-27T06:13:17;9.10;99.90
18163;DHT22;9206;50.994;4.538;2022-09-27T06:16:08;9.10;99.90
18163;DHT22;9206;50.994;4.538;2022-09-27T06:18:57;9.20;99.90
18163;DHT22;9206;50.994;4.538;2022-09-27T06:21:54;9.20;99.90
18163;DHT22;9206;50.994;4.538;2022-09-27T06:24:41;9.20;99.90
18163;DHT22;9206;50.994;4.538;2022-09-27T06:27:29;9.20;99.90
18163;DHT22;9206;50.994;4.538;2022-09-27T06:30:17;9.30;99.90
18163;DHT22;9206;50.994;4.538;2022-09-27T06:33:05;9.30;99.90
18163;DHT22;9206;50.994;4.538;2022-09-27T06:35:54;9.40;99.90
18163;DHT22;9206;50.994;4.538;2022-09-27T06:38:56;9.60;99.90
18163;DHT22;9206;50.994;4.538;2022-09-27T06:41:47;9.70;99.90
18163;DHT22;9206;50.994;4.538;2022-09-27T06:44:35;9.70;99.90
18163;DHT22;9206;50.994;4.538;2022-09-27T06:47:22;9.60;99.90
18163;DHT22;9206;50.994;4.538;2022-09-27T06:50:10;9.60;99.90
18163;DHT22;9206;50.994;4.538;2022-09-27T06:53:00;9.60;99.90
18163;DHT22;9206;50.994;4.538;2022-09-27T06:55:50;9.70;99.90
18163;DHT22;9206;50.994;4.538;2022-09-27T06:58:43;9.60;99.90
18163;DHT22;9206;50.994;4.538;2022-09-27T07:01:51;9.70;99.90
18163;DHT22;9206;50.994;4.538;2022-09-27T07:04:41;9.80;99.90
18163;DHT22;9206;50.994;4.538;2022-09-27T07:07:28;9.90;99.90
18163;DHT22;9206;50.994;4.538;2022-09-27T07:10:22;9.90;99.90
18163;DHT22;9206;50.994;4.538;2022-09-27T07:13:12;10.00;99.90
18163;DHT22;9206;50.994;4.538;2022-09-27T07:16:01;10.00;99.90
18163;DHT22;9206;50.994;4.538;2022-09-27T07:18:50;10.10;99.90
18163;DHT22;9206;50.994;4.538;2022-09-27T07:21:40;10.20;99.90
18163;DHT22;9206;50.994;4.538;2022-09-27T07:24:30;10.40;99.90
18163;DHT22;9206;50.994;4.538;2022-09-27T07:27:17;10.50;99.90
18163;DHT22;9206;50.994;4.538;2022-09-27T07:30:08;10.50;99.90
18163;DHT22;9206;50.994;4.538;2022-09-27T07:33:03;10.60;99.90
18163;DHT22;9206;50.994;4.538;2022-09-27T07:35:52;10.90;99.90
18163;DHT22;9206;50.994;4.538;2022-09-27T07:38:42;11.20;99.90
18163;DHT22;9206;50.994;4.538;2022-09-27T07:41:30;11.60;99.90
18163;DHT22;9206;50.994;4.538;2022-09-27T07:44:21;11.80;99.90
18163;DHT22;9206;50.994;4.538;2022-09-27T07:47:13;11.80;99.90
18163;DHT22;9206;50.994;4.538;2022-09-27T07:50:04;11.70;99.90
18163;DHT22;9206;50.994;4.538;2022-09-27T07:52:54;11.50;99.90
18163;DHT22;9206;50.994;4.538;2022-09-27T07:55:49;11.40;99.90
18163;DHT22;9206;50.994;4.538;2022-09-27T07:58:45;11.30;99.90
18163;DHT22;9206;50.994;4.538;2022-09-27T08:01:38;11.30;99.90
18163;DHT22;9206;50.994;4.538;2022-09-27T08:04:30;11.20;99.90
18163;DHT22;9206;50.994;4.538;2022-09-27T08:07:20;11.30;99.90
18163;DHT22;9206;50.994;4.538;2022-09-27T08:10:13;11.20;99.90
18163;DHT22;9206;50.994;4.538;2022-09-27T08:13:04;11.20;99.90
18163;DHT22;9206;50.994;4.538;2022-09-27T08:16:10;11.30;99.90
18163;DHT22;9206;50.994;4.538;2022-09-27T08:19:04;11.40;99.90
18163;DHT22;9206;50.994;4.538;2022-09-27T08:21:56;11.60;99.90
18163;DHT22;9206;50.994;4.538;2022-09-27T08:24:46;11.50;99.90
18163;DHT22;9206;50.994;4.538;2022-09-27T08:27:35;11.50;99.90
18163;DHT22;9206;50.994;4.538;2022-09-27T08:30:26;11.40;99.90
18163;DHT22;9206;50.994;4.538;2022-09-27T08:33:17;11.30;99.90
18163;DHT22;9206;50.994;4.538;2022-09-27T08:36:11;11.20;99.90
18163;DHT22;9206;50.994;4.538;2022-09-27T08:39:05;11.20;99.90
18163;DHT22;9206;50.994;4.538;2022-09-27T08:42:07;11.10;99.90
18163;DHT22;9206;50.994;4.538;2022-09-27T08:45:02;11.10;99.90
18163;DHT22;9206;50.994;4.538;2022-09-27T08:47:57;11.00;99.90
18163;DHT22;9206;50.994;4.538;2022-09-27T08:50:53;11.00;99.90
18163;DHT22;9206;50.994;4.538;2022-09-27T08:53:47;10.80;99.90
18163;DHT22;9206;50.994;4.538;2022-09-27T08:56:43;10.80;99.90
18163;DHT22;9206;50.994;4.538;2022-09-27T08:59:38;10.80;99.90
18163;DHT22;9206;50.994;4.538;2022-09-27T09:02:26;10.80;99.90
18163;DHT22;9206;50.994;4.538;2022-09-27T09:05:26;10.90;99.90
18163;DHT22;9206;50.994;4.538;2022-09-27T09:08:27;11.00;99.90
18163;DHT22;9206;50.994;4.538;2022-09-27T09:11:26;11.10;99.90
18163;DHT22;9206;50.994;4.538;2022-09-27T09:15:05;11.10;99.90
18163;DHT22;9206;50.994;4.538;2022-09-27T09:18:05;11.10;99.90
18163;DHT22;9206;50.994;4.538;2022-09-27T09:21:07;11.00;99.90
18163;DHT22;9206;50.994;4.538;2022-09-27T09:24:10;10.80;99.90
18163;DHT22;9206;50.994;4.538;2022-09-27T09:27:06;10.70;99.90
18163;DHT22;9206;50.994;4.538;2022-09-27T09:33:04;10.70;99.90
18163;DHT22;9206;50.994;4.538;2022-09-27T09:36:02;10.60;99.90
18163;DHT22;9206;50.994;4.538;2022-09-27T09:38:52;10.60;99.90
18163;DHT22;9206;50.994;4.538;2022-09-27T09:41:50;10.70;99.90
18163;DHT22;9206;50.994;4.538;2022-09-27T09:44:48;10.90;99.90
18163;DHT22;9206;50.994;4.538;2022-09-27T09:47:42;11.30;99.90
18163;DHT22;9206;50.994;4.538;2022-09-27T09:50:38;11.60;99.90
18163;DHT22;9206;50.994;4.538;2022-09-27T09:53:38;12.20;99.90
18163;DHT22;9206;50.994;4.538;2022-09-27T09:56:29;13.10;99.90
18163;DHT22;9206;50.994;4.538;2022-09-27T09:59:24;13.80;99.90
18163;DHT22;9206;50.994;4.538;2022-09-27T10:02:26;14.80;99.90
18163;DHT22;9206;50.994;4.538;2022-09-27T10:05:18;15.50;99.90
18163;DHT22;9206;50.994;4.538;2022-09-27T10:08:16;16.20;99.90
18163;DHT22;9206;50.994;4.538;2022-09-27T10:11:06;17.70;99.90
18163;DHT22;9206;50.994;4.538;2022-09-27T10:13:59;18.00;99.90
18163;DHT22;9206;50.994;4.538;2022-09-27T10:16:53;17.90;99.90
18163;DHT22;9206;50.994;4.538;2022-09-27T10:19:44;17.60;99.90
18163;DHT22;9206;50.994;4.538;2022-09-27T10:22:53;17.60;99.90
18163;DHT22;9206;50.994;4.538;2022-09-27T10:25:50;17.50;99.90
18163;DHT22;9206;50.994;4.538;2022-09-27T10:28:44;17.40;99.90
18163;DHT22;9206;50.994;4.538;2022-09-27T10:31:35;17.20;99.90
18163;DHT22;9206;50.994;4.538;2022-09-27T10:34:27;17.00;99.90
18163;DHT22;9206;50.994;4.538;2022-09-27T10:37:17;16.90;99.90
18163;DHT22;9206;50.994;4.538;2022-09-27T10:40:26;16.80;99.90
18163;DHT22;9206;50.994;4.538;2022-09-27T10:43:29;16.90;99.90
18163;DHT22;9206;50.994;4.538;2022-09-27T10:46:24;16.80;99.90
18163;DHT22;9206;50.994;4.538;2022-09-27T10:49:18;17.20;99.90
18163;DHT22;9206;50.994;4.538;2022-09-27T10:52:13;16.90;99.90
18163;DHT22;9206;50.994;4.538;2022-09-27T10:55:19;17.20;99.90
18163;DHT22;9206;50.994;4.538;2022-09-27T10:58:17;18.00;99.90
18163;DHT22;9206;50.994;4.538;2022-09-27T11:01:09;19.20;99.90
18163;DHT22;9206;50.994;4.538;2022-09-27T11:04:03;20.10;99.90
18163;DHT22;9206;50.994;4.538;2022-09-27T11:06:50;22.40;99.90
18163;DHT22;9206;50.994;4.538;2022-09-27T11:09:47;22.50;99.90
18163;DHT22;9206;50.994;4.538;2022-09-27T11:12:35;21.00;99.90
18163;DHT22;9206;50.994;4.538;2022-09-27T11:15:28;19.00;99.90
18163;DHT22;9206;50.994;4.538;2022-09-27T11:18:26;17.00;99.90
18163;DHT22;9206;50.994;4.538;2022-09-27T11:21:28;15.60;99.90
18163;DHT22;9206;50.994;4.538;2022-09-27T11:24:47;14.60;99.90
18163;DHT22;9206;50.994;4.538;2022-09-27T11:27:46;14.00;99.90
18163;DHT22;9206;50.994;4.538;2022-09-27T11:30:46;13.60;99.90
18163;DHT22;9206;50.994;4.538;2022-09-27T11:33:53;13.50;99.90
18163;DHT22;9206;50.994;4.538;2022-09-27T11:37:00;13.30;99.90
18163;DHT22;9206;50.994;4.538;2022-09-27T11:40:02;13.20;99.90
18163;DHT22;9206;50.994;4.538;2022-09-27T11:46:23;13.50;99.90
18163;DHT22;9206;50.994;4.538;2022-09-27T11:52:39;13.90;99.90
18163;DHT22;9206;50.994;4.538;2022-09-27T11:55:36;14.40;99.90
18163;DHT22;9206;50.994;4.538;2022-09-27T11:58:32;15.80;99.90
18163;DHT22;9206;50.994;4.538;2022-09-27T12:01:35;17.10;99.90
18163;DHT22;9206;50.994;4.538;2022-09-27T12:04:48;17.50;99.90
18163;DHT22;9206;50.994;4.538;2022-09-27T12:07:44;18.30;99.90
18163;DHT22;9206;50.994;4.538;2022-09-27T12:10:37;20.10;99.90
18163;DHT22;9206;50.994;4.538;2022-09-27T12:13:32;21.20;99.90
18163;DHT22;9206;50.994;4.538;2022-09-27T12:16:23;22.20;99.90
18163;DHT22;9206;50.994;4.538;2022-09-27T12:19:16;21.90;99.90
18163;DHT22;9206;50.994;4.538;2022-09-27T12:22:06;20.50;99.90
18163;DHT22;9206;50.994;4.538;2022-09-27T12:25:04;19.20;99.90
18163;DHT22;9206;50.994;4.538;2022-09-27T12:27:55;18.10;99.90
18163;DHT22;9206;50.994;4.538;2022-09-27T12:30:53;17.40;99.90
18163;DHT22;9206;50.994;4.538;2022-09-27T12:33:47;16.20;99.90
18163;DHT22;9206;50.994;4.538;2022-09-27T12:36:41;15.50;99.90
18163;DHT22;9206;50.994;4.538;2022-09-27T12:39:40;15.10;99.90
18163;DHT22;9206;50.994;4.538;2022-09-27T12:42:37;15.30;99.90
18163;DHT22;9206;50.994;4.538;2022-09-27T12:45:34;15.30;99.90
18163;DHT22;9206;50.994;4.538;2022-09-27T12:48:39;16.50;99.90
18163;DHT22;9206;50.994;4.538;2022-09-27T12:51:35;19.40;99.90
18163;DHT22;9206;50.994;4.538;2022-09-27T12:55:06;20.90;99.90
18163;DHT22;9206;50.994;4.538;2022-09-27T12:58:39;21.90;99.90
18163;DHT22;9206;50.994;4.538;2022-09-27T13:01:46;21.90;99.90
18163;DHT22;9206;50.994;4.538;2022-09-27T13:04:56;19.60;99.90
18163;DHT22;9206;50.994;4.538;2022-09-27T13:07:57;18.40;99.90
18163;DHT22;9206;50.994;4.538;2022-09-27T13:10:54;17.70;99.90
18163;DHT22;9206;50.994;4.538;2022-09-27T13:13:45;17.00;99.90
18163;DHT22;9206;50.994;4.538;2022-09-27T13:16:41;16.20;99.90
18163;DHT22;9206;50.994;4.538;2022-09-27T13:19:41;15.60;99.90
18163;DHT22;9206;50.994;4.538;2022-09-27T13:22:39;15.20;99.90
18163;DHT22;9206;50.994;4.538;2022-09-27T13:25:47;15.00;99.90
18163;DHT22;9206;50.994;4.538;2022-09-27T13:28:59;15.10;99.90
18163;DHT22;9206;50.994;4.538;2022-09-27T13:32:22;15.40;99.90
18163;DHT22;9206;50.994;4.538;2022-09-27T13:35:20;15.90;99.90
18163;DHT22;9206;50.994;4.538;2022-09-27T13:38:17;16.00;99.90
18163;DHT22;9206;50.994;4.538;2022-09-27T13:41:13;16.00;99.90
18163;DHT22;9206;50.994;4.538;2022-09-27T13:44:10;15.80;99.90
18163;DHT22;9206;50.994;4.538;2022-09-27T13:47:02;15.90;99.90
18163;DHT22;9206;50.994;4.538;2022-09-27T13:50:03;15.80;99.90
18163;DHT22;9206;50.994;4.538;2022-09-27T13:53:03;15.70;99.90
18163;DHT22;9206;50.994;4.538;2022-09-27T13:55:53;15.80;99.90
18163;DHT22;9206;50.994;4.538;2022-09-27T13:58:51;15.50;99.90
18163;DHT22;9206;50.994;4.538;2022-09-27T14:01:46;15.30;99.90
18163;DHT22;9206;50.994;4.538;2022-09-27T14:04:46;15.10;99.90
18163;DHT22;9206;50.994;4.538;2022-09-27T14:07:40;15.00;99.90
18163;DHT22;9206;50.994;4.538;2022-09-27T14:10:29;15.00;99.90
18163;DHT22;9206;50.994;4.538;2022-09-27T14:13:19;15.10;99.90
18163;DHT22;9206;50.994;4.538;2022-09-27T14:16:17;15.20;99.90
18163;DHT22;9206;50.994;4.538;2022-09-27T14:19:14;15.10;99.90
18163;DHT22;9206;50.994;4.538;2022-09-27T14:22:09;15.10;99.90
18163;DHT22;9206;50.994;4.538;2022-09-27T14:25:15;14.80;99.90
18163;DHT22;9206;50.994;4.538;2022-09-27T14:28:21;14.80;99.90
18163;DHT22;9206;50.994;4.538;2022-09-27T14:31:13;14.90;99.90
18163;DHT22;9206;50.994;4.538;2022-09-27T14:34:07;15.20;99.90
18163;DHT22;9206;50.994;4.538;2022-09-27T14:37:02;15.40;99.90
18163;DHT22;9206;50.994;4.538;2022-09-27T14:40:20;15.80;99.90
18163;DHT22;9206;50.994;4.538;2022-09-27T14:43:14;16.20;99.90
18163;DHT22;9206;50.994;4.538;2022-09-27T14:46:23;16.30;99.90
18163;DHT22;9206;50.994;4.538;2022-09-27T14:49:22;16.40;99.90
18163;DHT22;9206;50.994;4.538;2022-09-27T14:52:18;16.40;99.90
18163;DHT22;9206;50.994;4.538;2022-09-27T14:55:18;16.10;99.90
18163;DHT22;9206;50.994;4.538;2022-09-27T14:58:20;15.60;99.90
18163;DHT22;9206;50.994;4.538;2022-09-27T15:01:14;15.10;99.90
18163;DHT22;9206;50.994;4.538;2022-09-27T15:04:06;14.90;99.90
18163;DHT22;9206;50.994;4.538;2022-09-27T15:06:59;14.50;99.90
18163;DHT22;9206;50.994;4.538;2022-09-27T15:09:50;14.30;99.90
18163;DHT22;9206;50.994;4.538;2022-09-27T15:12:38;14.00;99.90
18163;DHT22;9206;50.994;4.538;2022-09-27T15:15:32;13.70;99.90
18163;DHT22;9206;50.994;4.538;2022-09-27T15:18:38;13.30;99.90
18163;DHT22;9206;50.994;4.538;2022-09-27T15:21:32;12.90;99.90
18163;DHT22;9206;50.994;4.538;2022-09-27T15:24:38;12.70;99.90
18163;DHT22;9206;50.994;4.538;2022-09-27T15:27:27;12.50;99.90
18163;DHT22;9206;50.994;4.538;2022-09-27T15:30:17;12.50;99.90
18163;DHT22;9206;50.994;4.538;2022-09-27T15:33:19;12.50;99.90
18163;DHT22;9206;50.994;4.538;2022-09-27T15:36:10;12.60;99.90
18163;DHT22;9206;50.994;4.538;2022-09-27T15:39:06;12.80;99.90
18163;DHT22;9206;50.994;4.538;2022-09-27T15:42:04;13.10;99.90
18163;DHT22;9206;50.994;4.538;2022-09-27T15:44:54;13.30;99.90
18163;DHT22;9206;50.994;4.538;2022-09-27T15:47:50;13.60;99.90
18163;DHT22;9206;50.994;4.538;2022-09-27T15:50:38;13.60;99.90
18163;DHT22;9206;50.994;4.538;2022-09-27T15:53:44;13.40;99.90
18163;DHT22;9206;50.994;4.538;2022-09-27T15:56:37;13.30;99.90
18163;DHT22;9206;50.994;4.538;2022-09-27T15:59:40;13.20;99.90
18163;DHT22;9206;50.994;4.538;2022-09-27T16:02:35;13.10;99.90
18163;DHT22;9206;50.994;4.538;2022-09-27T16:05:25;13.00;99.90
18163;DHT22;9206;50.994;4.538;2022-09-27T16:08:14;13.00;99.90
18163;DHT22;9206;50.994;4.538;2022-09-27T16:11:04;13.00;99.90
18163;DHT22;9206;50.994;4.538;2022-09-27T16:13:51;13.00;99.90
18163;DHT22;9206;50.994;4.538;2022-09-27T16:16:41;13.00;99.90
18163;DHT22;9206;50.994;4.538;2022-09-27T16:19:31;13.10;99.90
18163;DHT22;9206;50.994;4.538;2022-09-27T16:22:24;13.00;99.90
18163;DHT22;9206;50.994;4.538;2022-09-27T16:25:18;13.00;99.90
18163;DHT22;9206;50.994;4.538;2022-09-27T16:28:06;12.90;99.90
18163;DHT22;9206;50.994;4.538;2022-09-27T16:31:02;12.90;99.90
18163;DHT22;9206;50.994;4.538;2022-09-27T16:33:53;12.90;99.90
18163;DHT22;9206;50.994;4.538;2022-09-27T16:36:43;12.80;99.90
18163;DHT22;9206;50.994;4.538;2022-09-27T16:39:31;12.70;99.90
18163;DHT22;9206;50.994;4.538;2022-09-27T16:42:20;12.60;99.90
18163;DHT22;9206;50.994;4.538;2022-09-27T16:45:10;12.50;99.90
18163;DHT22;9206;50.994;4.538;2022-09-27T16:48:03;12.50;99.90
18163;DHT22;9206;50.994;4.538;2022-09-27T16:50:54;12.30;99.90
18163;DHT22;9206;50.994;4.538;2022-09-27T16:54:00;12.20;99.90
18163;DHT22;9206;50.994;4.538;2022-09-27T16:56:48;12.10;99.90
18163;DHT22;9206;50.994;4.538;2022-09-27T16:59:38;12.00;99.90
18163;DHT22;9206;50.994;4.538;2022-09-27T17:02:31;11.80;99.90
18163;DHT22;9206;50.994;4.538;2022-09-27T17:05:25;11.70;99.90
18163;DHT22;9206;50.994;4.538;2022-09-27T17:08:15;11.70;99.90
18163;DHT22;9206;50.994;4.538;2022-09-27T17:11:04;11.60;99.90
18163;DHT22;9206;50.994;4.538;2022-09-27T17:14:01;11.60;99.90
18163;DHT22;9206;50.994;4.538;2022-09-27T17:16:59;11.60;99.90
18163;DHT22;9206;50.994;4.538;2022-09-27T17:19:48;11.60;99.90
18163;DHT22;9206;50.994;4.538;2022-09-27T17:22:38;11.50;99.90
18163;DHT22;9206;50.994;4.538;2022-09-27T17:25:26;11.50;99.90
18163;DHT22;9206;50.994;4.538;2022-09-27T17:28:17;11.50;99.90
18163;DHT22;9206;50.994;4.538;2022-09-27T17:31:06;11.50;99.90
18163;DHT22;9206;50.994;4.538;2022-09-27T17:33:56;11.40;99.90
18163;DHT22;9206;50.994;4.538;2022-09-27T17:36:45;11.30;99.90
18163;DHT22;9206;50.994;4.538;2022-09-27T17:39:36;11.10;99.90
18163;DHT22;9206;50.994;4.538;2022-09-27T17:42:25;11.00;99.90
18163;DHT22;9206;50.994;4.538;2022-09-27T17:45:15;10.80;99.90
18163;DHT22;9206;50.994;4.538;2022-09-27T17:48:05;10.70;99.90
18163;DHT22;9206;50.994;4.538;2022-09-27T17:51:11;10.70;99.90
18163;DHT22;9206;50.994;4.538;2022-09-27T17:54:07;10.60;99.90
18163;DHT22;9206;50.994;4.538;2022-09-27T17:56:55;10.50;99.90
18163;DHT22;9206;50.994;4.538;2022-09-27T17:59:44;10.50;99.90
18163;DHT22;9206;50.994;4.538;2022-09-27T18:02:33;10.50;99.90
18163;DHT22;9206;50.994;4.538;2022-09-27T18:05:21;10.50;99.90
18163;DHT22;9206;50.994;4.538;2022-09-27T18:08:09;10.40;99.90
18163;DHT22;9206;50.994;4.538;2022-09-27T18:11:03;10.40;99.90
18163;DHT22;9206;50.994;4.538;2022-09-27T18:13:51;10.40;99.90
18163;DHT22;9206;50.994;4.538;2022-09-27T18:16:41;10.40;99.90
18163;DHT22;9206;50.994;4.538;2022-09-27T18:19:33;10.30;99.90
18163;DHT22;9206;50.994;4.538;2022-09-27T18:22:20;10.30;99.90
18163;DHT22;9206;50.994;4.538;2022-09-27T18:25:09;10.20;99.90
18163;DHT22;9206;50.994;4.538;2022-09-27T18:27:57;10.20;99.90
18163;DHT22;9206;50.994;4.538;2022-09-27T18:30:45;10.10;99.90
18163;DHT22;9206;50.994;4.538;2022-09-27T18:33:34;10.10;99.90
18163;DHT22;9206;50.994;4.538;2022-09-27T18:36:25;10.10;99.90
18163;DHT22;9206;50.994;4.538;2022-09-27T18:39:14;10.10;99.90
18163;DHT22;9206;50.994;4.538;2022-09-27T18:42:04;10.00;99.90
18163;DHT22;9206;50.994;4.538;2022-09-27T18:44:53;10.00;99.90
18163;DHT22;9206;50.994;4.538;2022-09-27T18:47:41;10.00;99.90
18163;DHT22;9206;50.994;4.538;2022-09-27T18:50:34;9.90;99.90
18163;DHT22;9206;50.994;4.538;2022-09-27T18:53:27;9.90;99.90
18163;DHT22;9206;50.994;4.538;2022-09-27T18:56:16;9.90;99.90
18163;DHT22;9206;50.994;4.538;2022-09-27T18:59:10;9.80;99.90